createdAt,value
2023-01-04T00:01:11.777Z,102916.72
2023-01-04T00:03:38.607Z,102908.97
2023-01-04T00:06:06.401Z,102911.97
2023-01-04T00:08:33.244Z,102909.66
2023-01-04T00:11:02.897Z,102908.84
2023-01-04T00:13:32.309Z,102908.31
2023-01-04T00:16:05.595Z,102911.97
2023-01-04T00:18:34.489Z,102910.19
2023-01-04T00:21:10.288Z,102903.44
2023-01-04T00:23:40.219Z,102905.66
2023-01-04T00:26:07.889Z,102906.75
2023-01-04T00:28:34.488Z,102903.75
2023-01-04T00:31:08.871Z,102902.66
2023-01-04T00:33:35.563Z,102897.47
2023-01-04T00:36:03.248Z,102902.91
2023-01-04T00:38:29.942Z,102899.84
2023-01-04T00:40:56.521Z,102888.69
2023-01-04T00:43:23.105Z,102893.41
2023-01-04T00:45:49.801Z,102887.09
2023-01-04T00:48:16.432Z,102890.72
2023-01-04T00:50:46.129Z,102886.13
2023-01-04T00:53:13.302Z,102887.81
2023-01-04T00:55:39.875Z,102889.16
2023-01-04T00:58:06.960Z,102887.25
2023-01-04T01:00:33.858Z,102887.47
2023-01-04T01:03:01.185Z,102881.06
2023-01-04T01:05:27.960Z,102876.47
2023-01-04T01:07:54.552Z,102877.69
2023-01-04T01:10:21.250Z,102880.47
2023-01-04T01:12:47.806Z,102881.44
2023-01-04T01:15:14.449Z,102895.72
2023-01-04T01:17:41.000Z,102889.13
2023-01-04T01:20:08.460Z,102890.31
2023-01-04T01:22:35.822Z,102893.31
2023-01-04T01:25:02.415Z,102890.91
2023-01-04T01:27:28.933Z,102898.53
2023-01-04T01:29:55.565Z,102895.88
2023-01-04T01:32:22.123Z,102892.97
2023-01-04T01:34:48.694Z,102896.13
2023-01-04T01:37:16.049Z,102901.72
2023-01-04T01:39:42.695Z,102895.56
2023-01-04T01:42:18.118Z,102900.75
2023-01-04T01:44:45.342Z,102902.31
2023-01-04T01:47:16.043Z,102901.34
2023-01-04T01:49:43.692Z,102902.06
2023-01-04T01:52:14.548Z,102901.84
2023-01-04T01:54:46.279Z,102899.78
2023-01-04T01:57:16.202Z,102903.06
2023-01-04T01:59:44.339Z,102900.53
2023-01-04T02:02:11.505Z,102896.66
2023-01-04T02:04:40.592Z,102898.47
2023-01-04T02:07:07.799Z,102902.09
2023-01-04T02:09:34.375Z,102905.00
2023-01-04T02:12:01.050Z,102908.03
2023-01-04T02:14:27.708Z,102911.41
2023-01-04T02:16:56.284Z,102913.09
2023-01-04T02:19:38.160Z,102921.28
2023-01-04T02:25:26.912Z,102920.34
2023-01-04T02:27:53.467Z,102920.94
2023-01-04T02:30:29.415Z,102925.16
2023-01-04T02:33:14.989Z,102923.59
2023-01-04T02:35:47.227Z,102915.38
2023-01-04T02:38:28.640Z,102924.44
2023-01-04T02:40:55.219Z,102927.72
2023-01-04T02:43:52.679Z,102930.50
2023-01-04T02:46:26.226Z,102924.44
2023-01-04T02:49:11.393Z,102921.19
2023-01-04T02:51:38.592Z,102922.88
2023-01-04T02:54:07.970Z,102925.31
2023-01-04T02:56:43.933Z,102916.72
2023-01-04T02:59:25.568Z,102907.53
2023-01-04T03:02:19.236Z,102909.06
2023-01-04T03:05:07.521Z,102911.16
2023-01-04T03:07:43.169Z,102909.94
2023-01-04T03:10:15.817Z,102898.94
2023-01-04T03:12:50.626Z,102897.25
2023-01-04T03:15:22.619Z,102898.31
2023-01-04T03:17:52.103Z,102890.97
2023-01-04T03:20:20.897Z,102879.72
2023-01-04T03:23:08.299Z,102889.50
2023-01-04T03:25:59.160Z,102883.56
2023-01-04T03:28:46.400Z,102891.56
2023-01-04T03:31:52.058Z,102881.66
2023-01-04T03:34:37.629Z,102880.06
2023-01-04T03:37:04.217Z,102878.25
2023-01-04T03:39:49.165Z,102880.63
2023-01-04T03:42:48.093Z,102877.34
2023-01-04T03:45:36.459Z,102885.03
2023-01-04T03:48:32.668Z,102878.66
2023-01-04T03:50:59.482Z,102876.75
2023-01-04T03:53:27.341Z,102877.03
2023-01-04T03:55:55.031Z,102875.09
2023-01-04T03:58:21.940Z,102869.78
2023-01-04T04:00:48.689Z,102872.78
2023-01-04T04:03:15.349Z,102877.53
2023-01-04T04:06:01.097Z,102881.19
2023-01-04T04:08:28.339Z,102887.41
2023-01-04T04:10:56.101Z,102882.06
2023-01-04T04:13:23.052Z,102887.50
2023-01-04T04:15:49.651Z,102880.38
2023-01-04T04:18:16.307Z,102892.59
2023-01-04T04:20:44.209Z,102882.44
2023-01-04T04:23:10.773Z,102885.91
2023-01-04T04:25:37.296Z,102886.78
2023-01-04T04:28:04.133Z,102879.66
2023-01-04T04:30:30.661Z,102885.53
2023-01-04T04:32:57.359Z,102883.63
2023-01-04T04:35:23.995Z,102883.22
2023-01-04T04:37:50.647Z,102886.31
2023-01-04T04:40:40.179Z,102888.75
2023-01-04T04:43:08.007Z,102888.56
2023-01-04T04:45:34.570Z,102892.03
2023-01-04T04:48:01.267Z,102893.34
2023-01-04T04:50:27.877Z,102893.16
2023-01-04T04:52:56.430Z,102885.06
2023-01-04T04:55:23.132Z,102884.81
2023-01-04T04:57:49.766Z,102887.78
2023-01-04T05:00:16.539Z,102884.28
2023-01-04T05:02:43.323Z,102882.69
2023-01-04T05:05:09.991Z,102891.56
2023-01-04T05:07:36.591Z,102894.06
2023-01-04T05:10:03.342Z,102900.19
2023-01-04T05:12:51.715Z,102895.63
2023-01-04T05:15:21.012Z,102892.41
2023-01-04T05:17:47.555Z,102895.13
2023-01-04T05:20:14.136Z,102898.13
2023-01-04T05:22:41.095Z,102902.06
2023-01-04T05:25:08.407Z,102897.09
2023-01-04T05:27:34.951Z,102890.59
2023-01-04T05:30:20.257Z,102908.97
2023-01-04T05:32:46.874Z,102897.66
2023-01-04T05:35:13.453Z,102907.09
2023-01-04T05:37:40.126Z,102904.56
2023-01-04T05:40:06.856Z,102910.56
2023-01-04T05:42:33.559Z,102911.41
2023-01-04T05:45:00.299Z,102913.63
2023-01-04T05:47:27.288Z,102913.63
2023-01-04T05:49:53.862Z,102916.63
2023-01-04T05:52:20.818Z,102922.28
2023-01-04T05:54:47.410Z,102922.88
2023-01-04T05:57:14.038Z,102914.38
2023-01-04T05:59:42.133Z,102921.50
2023-01-04T06:02:13.992Z,102923.91
2023-01-04T06:04:40.785Z,102930.00
2023-01-04T06:07:07.348Z,102932.56
2023-01-04T06:09:33.975Z,102937.22
2023-01-04T06:12:00.598Z,102937.63
2023-01-04T06:14:27.189Z,102936.09
2023-01-04T06:16:53.756Z,102937.22
2023-01-04T06:19:20.415Z,102935.88
2023-01-04T06:21:47.007Z,102936.72
2023-01-04T06:24:13.621Z,102944.34
2023-01-04T06:26:40.179Z,102942.31
2023-01-04T06:29:06.858Z,102947.94
2023-01-04T06:31:36.343Z,102944.69
2023-01-04T06:34:03.165Z,102943.63
2023-01-04T06:36:30.081Z,102944.56
2023-01-04T06:39:00.353Z,102949.47
2023-01-04T06:41:27.026Z,102957.53
2023-01-04T06:43:53.609Z,102956.06
2023-01-04T06:46:20.226Z,102951.13
2023-01-04T06:48:46.871Z,102956.19
2023-01-04T06:51:13.504Z,102955.31
2023-01-04T06:53:40.120Z,102968.38
2023-01-04T06:56:09.088Z,102964.88
2023-01-04T06:58:36.229Z,102970.13
2023-01-04T07:01:03.013Z,102964.78
2023-01-04T07:03:29.641Z,102971.56
2023-01-04T07:05:56.357Z,102970.50
2023-01-04T07:08:22.947Z,102970.47
2023-01-04T07:10:49.804Z,102965.56
2023-01-04T07:13:17.544Z,102974.88
2023-01-04T07:15:44.262Z,102977.00
2023-01-04T07:18:10.959Z,102969.41
2023-01-04T07:20:38.044Z,102973.81
2023-01-04T07:23:05.350Z,102974.22
2023-01-04T07:25:32.033Z,102970.53
2023-01-04T07:27:58.573Z,102968.97
2023-01-04T07:30:25.344Z,102971.34
2023-01-04T07:32:52.856Z,102968.69
2023-01-04T07:35:19.699Z,102981.97
2023-01-04T07:37:46.295Z,102992.34
2023-01-04T07:40:13.212Z,102987.69
2023-01-04T07:42:39.820Z,102992.97
2023-01-04T07:45:07.103Z,102996.06
2023-01-04T07:47:33.921Z,103000.22
2023-01-04T07:50:00.815Z,103010.25
2023-01-04T07:52:27.673Z,103005.03
2023-01-04T07:54:54.266Z,103010.25
2023-01-04T07:57:20.786Z,103007.25
2023-01-04T07:59:47.526Z,103014.13
2023-01-04T08:02:14.291Z,103018.03
2023-01-04T08:04:41.045Z,103018.59
2023-01-04T08:07:07.850Z,103026.63
2023-01-04T08:09:34.505Z,103035.31
2023-01-04T08:12:01.060Z,103035.63
2023-01-04T08:14:27.735Z,103034.22
2023-01-04T08:16:54.326Z,103035.50
2023-01-04T08:19:21.333Z,103040.94
2023-01-04T08:21:48.265Z,103033.88
2023-01-04T08:24:16.252Z,103046.78
2023-01-04T08:26:43.379Z,103052.28
2023-01-04T08:29:10.650Z,103052.69
2023-01-04T08:31:37.511Z,103050.84
2023-01-04T08:34:06.120Z,103057.59
2023-01-04T08:36:43.769Z,103060.91
2023-01-04T08:39:10.408Z,103060.56
2023-01-04T08:44:37.531Z,103062.16
2023-01-04T08:47:04.273Z,103062.38
2023-01-04T08:49:30.952Z,103071.25
2023-01-04T08:51:57.579Z,103071.38
2023-01-04T08:54:24.334Z,103074.88
2023-01-04T08:56:50.932Z,103078.97
2023-01-04T08:59:17.597Z,103071.22
2023-01-04T09:01:44.303Z,103080.38
2023-01-04T09:04:11.062Z,103070.03
2023-01-04T09:06:38.751Z,103082.47
2023-01-04T09:09:05.796Z,103067.81
2023-01-04T09:11:32.482Z,103076.63
2023-01-04T09:14:07.411Z,103084.03
2023-01-04T09:16:35.058Z,103082.56
2023-01-04T09:19:01.799Z,103087.06
2023-01-04T09:21:28.569Z,103093.22
2023-01-04T09:23:56.822Z,103088.41
2023-01-04T09:26:23.936Z,103099.75
2023-01-04T09:28:51.835Z,103096.25
2023-01-04T09:31:20.903Z,103087.66
2023-01-04T09:34:13.239Z,103095.38
2023-01-04T09:36:34.159Z,103091.91
2023-01-04T09:39:00.710Z,103094.97
2023-01-04T09:41:34.775Z,103098.59
2023-01-04T09:44:03.202Z,103100.53
2023-01-04T09:46:38.454Z,103101.50
2023-01-04T09:49:25.501Z,103105.38
2023-01-04T09:51:55.574Z,103098.72
2023-01-04T09:54:23.441Z,103096.88
2023-01-04T09:56:53.387Z,103090.44
2023-01-04T09:59:23.671Z,103100.81
2023-01-04T10:01:59.675Z,103100.16
2023-01-04T10:04:29.528Z,103096.75
2023-01-04T10:07:04.458Z,103094.34
2023-01-04T10:09:31.881Z,103099.41
2023-01-04T10:12:08.369Z,103096.53
2023-01-04T10:14:34.979Z,103102.44
2023-01-04T10:17:13.412Z,103094.97
2023-01-04T10:22:50.142Z,103086.00
2023-01-04T10:25:19.979Z,103088.47
2023-01-04T10:27:55.376Z,103083.41
2023-01-04T10:30:33.897Z,103088.59
2023-01-04T10:33:09.669Z,103081.81
2023-01-04T10:35:36.832Z,103083.25
2023-01-04T10:38:04.413Z,103078.03
2023-01-04T10:40:34.469Z,103076.81
2023-01-04T10:43:07.780Z,103072.50
2023-01-04T10:45:46.116Z,103078.75
2023-01-04T10:48:18.867Z,103067.41
2023-01-04T10:50:45.437Z,103069.44
2023-01-04T10:53:25.949Z,103069.44
2023-01-04T10:56:25.750Z,103056.00
2023-01-04T10:58:53.306Z,103050.88
2023-01-04T11:01:25.176Z,103051.28
2023-01-04T11:04:02.615Z,103049.78
2023-01-04T11:06:31.400Z,103054.69
2023-01-04T11:09:06.678Z,103056.25
2023-01-04T11:11:33.331Z,103049.69
2023-01-04T11:14:00.331Z,103052.78
2023-01-04T11:16:29.381Z,103040.03
2023-01-04T11:18:56.138Z,103040.75
2023-01-04T11:21:26.281Z,103033.59
2023-01-04T11:23:56.496Z,103033.81
2023-01-04T11:26:39.332Z,103036.97
2023-01-04T11:29:06.563Z,103025.44
2023-01-04T11:31:33.164Z,103025.56
2023-01-04T11:34:00.949Z,103013.88
2023-01-04T11:36:33.604Z,103014.56
2023-01-04T11:39:00.448Z,103016.94
2023-01-04T11:41:27.587Z,103007.91
2023-01-04T11:44:02.037Z,103009.31
2023-01-04T11:46:29.445Z,102999.44
2023-01-04T11:48:56.156Z,102998.84
2023-01-04T11:51:23.291Z,103000.84
2023-01-04T11:54:01.145Z,102992.63
2023-01-04T11:56:29.703Z,102997.13
2023-01-04T11:59:08.423Z,102991.72
2023-01-04T12:01:36.570Z,102979.88
2023-01-04T12:04:04.798Z,102983.69
2023-01-04T12:06:46.738Z,102976.63
2023-01-04T12:09:14.972Z,102977.81
2023-01-04T12:11:47.016Z,102971.72
2023-01-04T12:14:37.077Z,102975.38
2023-01-04T12:17:12.310Z,102969.75
2023-01-04T12:19:41.117Z,102965.03
2023-01-04T12:22:33.820Z,102958.94
2023-01-04T12:25:01.371Z,102956.53
2023-01-04T12:27:28.170Z,102956.63
2023-01-04T12:29:57.013Z,102955.56
2023-01-04T12:32:23.556Z,102947.56
2023-01-04T12:34:50.400Z,102945.44
2023-01-04T12:37:48.474Z,102942.53
2023-01-04T12:40:33.821Z,102932.81
2023-01-04T12:43:24.547Z,102933.25
2023-01-04T12:46:31.122Z,102931.72
2023-01-04T12:49:03.532Z,102929.28
2023-01-04T12:51:31.545Z,102920.22
2023-01-04T12:53:59.856Z,102912.00
2023-01-04T12:56:49.759Z,102915.38
2023-01-04T12:59:30.773Z,102907.34
2023-01-04T13:02:18.292Z,102905.50
2023-01-04T13:04:45.109Z,102903.03
2023-01-04T13:07:22.338Z,102897.97
2023-01-04T13:09:58.197Z,102892.47
2023-01-04T13:12:33.747Z,102884.25
2023-01-04T13:15:14.494Z,102882.88
2023-01-04T13:17:44.297Z,102884.38
2023-01-04T13:20:15.575Z,102881.91
2023-01-04T13:22:47.959Z,102874.97
2023-01-04T13:25:14.910Z,102873.53
2023-01-04T13:27:54.646Z,102875.88
2023-01-04T13:30:38.315Z,102866.91
2023-01-04T13:33:29.720Z,102865.75
2023-01-04T13:36:04.433Z,102862.25
2023-01-04T13:38:33.554Z,102854.38
2023-01-04T13:41:00.251Z,102856.22
2023-01-04T13:43:30.309Z,102857.06
2023-01-04T13:46:06.511Z,102852.16
2023-01-04T13:48:37.282Z,102855.66
2023-01-04T13:51:05.491Z,102857.66
2023-01-04T13:53:32.793Z,102850.28
2023-01-04T13:56:00.989Z,102845.34
2023-01-04T13:58:30.724Z,102847.16
2023-01-04T14:01:02.985Z,102838.41
2023-01-04T14:03:32.194Z,102848.84
2023-01-04T14:06:11.073Z,102839.31
2023-01-04T14:08:40.699Z,102834.94
2023-01-04T14:11:41.728Z,102840.84
2023-01-04T14:14:23.668Z,102830.63
2023-01-04T14:16:50.927Z,102835.69
2023-01-04T14:19:27.746Z,102836.03
2023-01-04T14:21:55.613Z,102838.56
2023-01-04T14:25:08.043Z,102835.72
2023-01-04T14:27:34.527Z,102836.53
2023-01-04T14:30:01.992Z,102835.19
2023-01-04T14:32:28.557Z,102839.22
2023-01-04T14:34:55.359Z,102831.34
2023-01-04T14:37:22.165Z,102838.22
2023-01-04T14:39:48.971Z,102840.91
2023-01-04T14:42:26.131Z,102846.09
2023-01-04T14:44:52.796Z,102839.22
2023-01-04T14:47:19.365Z,102844.59
2023-01-04T14:49:46.050Z,102839.22
2023-01-04T14:52:19.977Z,102845.63
2023-01-04T14:54:46.623Z,102842.72
2023-01-04T14:57:13.291Z,102837.38
2023-01-04T14:59:39.881Z,102841.88
2023-01-04T15:02:06.855Z,102837.00
2023-01-04T15:04:33.513Z,102844.06
2023-01-04T15:07:00.638Z,102845.06
2023-01-04T15:09:27.813Z,102847.03
2023-01-04T15:11:54.672Z,102841.84
2023-01-04T15:14:21.328Z,102838.66
2023-01-04T15:16:48.200Z,102847.84
2023-01-04T15:19:15.055Z,102848.19
2023-01-04T15:21:41.980Z,102838.94
2023-01-04T15:24:09.200Z,102839.41
2023-01-04T15:26:35.892Z,102836.06
2023-01-04T15:29:02.702Z,102843.72
2023-01-04T15:31:35.114Z,102843.91
2023-01-04T15:34:05.329Z,102846.00
2023-01-04T15:36:31.938Z,102849.00
2023-01-04T15:38:58.655Z,102843.13
2023-01-04T15:41:43.670Z,102840.75
2023-01-04T15:44:11.430Z,102843.59
2023-01-04T15:46:38.358Z,102844.91
2023-01-04T15:49:05.202Z,102840.03
2023-01-04T15:51:31.740Z,102846.41
2023-01-04T15:53:58.435Z,102839.34
2023-01-04T15:56:25.158Z,102833.31
2023-01-04T15:58:53.114Z,102844.19
2023-01-04T16:01:19.776Z,102847.03
2023-01-04T16:03:51.384Z,102846.34
2023-01-04T16:06:20.673Z,102842.81
2023-01-04T16:08:48.838Z,102849.34
2023-01-04T16:11:23.262Z,102840.59
2023-01-04T16:13:50.982Z,102844.31
2023-01-04T16:16:18.435Z,102842.78
2023-01-04T16:18:46.654Z,102846.59
2023-01-04T16:21:13.803Z,102844.25
2023-01-04T16:23:40.593Z,102837.66
2023-01-04T16:26:11.191Z,102841.13
2023-01-04T16:28:38.262Z,102843.78
2023-01-04T16:31:05.567Z,102844.94
2023-01-04T16:33:32.770Z,102849.63
2023-01-04T16:36:00.414Z,102846.25
2023-01-04T16:38:27.434Z,102848.25
2023-01-04T16:41:01.156Z,102848.69
2023-01-04T16:43:28.190Z,102853.53
2023-01-04T16:46:13.057Z,102851.13
2023-01-04T16:48:43.420Z,102860.34
2023-01-04T16:51:10.097Z,102861.66
2023-01-04T16:53:37.017Z,102860.28
2023-01-04T16:56:04.425Z,102857.88
2023-01-04T16:58:31.035Z,102858.34
2023-01-04T17:01:05.369Z,102859.50
2023-01-04T17:03:32.318Z,102857.94
2023-01-04T17:05:58.893Z,102860.78
2023-01-04T17:08:27.222Z,102859.13
2023-01-04T17:10:53.885Z,102848.53
2023-01-04T17:13:20.523Z,102850.50
2023-01-04T17:15:47.098Z,102842.78
2023-01-04T17:18:15.227Z,102842.41
2023-01-04T17:20:41.903Z,102851.41
2023-01-04T17:23:08.478Z,102846.22
2023-01-04T17:25:35.103Z,102845.53
2023-01-04T17:28:03.217Z,102842.97
2023-01-04T17:30:29.796Z,102835.09
2023-01-04T17:32:56.406Z,102835.25
2023-01-04T17:35:22.979Z,102837.56
2023-01-04T17:37:49.571Z,102842.06
2023-01-04T17:40:20.779Z,102836.88
2023-01-04T17:42:49.764Z,102837.31
2023-01-04T17:45:16.455Z,102843.66
2023-01-04T17:47:43.096Z,102835.94
2023-01-04T17:50:09.697Z,102841.44
2023-01-04T17:52:37.555Z,102841.56
2023-01-04T17:55:04.582Z,102838.38
2023-01-04T17:57:33.024Z,102844.69
2023-01-04T17:59:59.635Z,102846.69
2023-01-04T18:02:26.348Z,102843.47
2023-01-04T18:04:53.019Z,102842.91
2023-01-04T18:07:24.989Z,102847.59
2023-01-04T18:09:52.106Z,102846.03
2023-01-04T18:12:18.920Z,102849.53
2023-01-04T18:14:45.549Z,102855.19
2023-01-04T18:17:12.440Z,102850.84
2023-01-04T18:19:41.679Z,102856.63
2023-01-04T18:22:11.237Z,102855.25
2023-01-04T18:24:38.956Z,102853.78
2023-01-04T18:27:24.520Z,102861.38
2023-01-04T18:29:52.781Z,102861.13
2023-01-04T18:32:19.514Z,102863.66
2023-01-04T18:34:46.084Z,102864.22
2023-01-04T18:37:13.701Z,102865.34
2023-01-04T18:39:40.365Z,102863.94
2023-01-04T18:42:06.925Z,102868.00
2023-01-04T18:44:35.008Z,102864.09
2023-01-04T18:47:04.955Z,102868.03
2023-01-04T18:49:31.820Z,102871.16
2023-01-04T18:51:58.343Z,102872.72
2023-01-04T18:54:25.118Z,102873.25
2023-01-04T18:56:57.284Z,102871.44
2023-01-04T18:59:30.837Z,102873.41
2023-01-04T19:02:02.228Z,102879.56
2023-01-04T19:04:30.285Z,102880.13
2023-01-04T19:06:56.876Z,102876.91
2023-01-04T19:09:23.528Z,102878.31
2023-01-04T19:11:50.180Z,102880.00
2023-01-04T19:14:17.044Z,102876.22
2023-01-04T19:16:43.817Z,102883.94
2023-01-04T19:19:10.866Z,102880.97
2023-01-04T19:21:37.813Z,102881.69
2023-01-04T19:24:04.586Z,102882.53
2023-01-04T19:26:31.208Z,102879.84
2023-01-04T19:28:57.794Z,102891.53
2023-01-04T19:31:24.364Z,102893.78
2023-01-04T19:33:51.030Z,102884.81
2023-01-04T19:36:19.181Z,102889.00
2023-01-04T19:38:45.871Z,102887.19
2023-01-04T19:41:19.775Z,102894.31
2023-01-04T19:43:46.485Z,102888.00
2023-01-04T19:46:13.213Z,102888.56
2023-01-04T19:48:39.936Z,102891.22
2023-01-04T19:51:16.482Z,102895.84
2023-01-04T19:53:44.254Z,102887.56
2023-01-04T19:56:11.892Z,102891.34
2023-01-04T19:58:38.485Z,102893.16
2023-01-04T20:01:05.417Z,102896.16
2023-01-04T20:03:32.689Z,102888.47
2023-01-04T20:06:03.402Z,102894.34
2023-01-04T20:08:30.101Z,102900.53
2023-01-04T20:10:57.678Z,102904.41
2023-01-04T20:13:24.430Z,102907.91
2023-01-04T20:15:51.559Z,102895.00
2023-01-04T20:18:18.582Z,102908.13
2023-01-04T20:20:45.122Z,102904.72
2023-01-04T20:23:11.864Z,102905.06
2023-01-04T20:25:48.617Z,102904.59
2023-01-04T20:28:15.685Z,102910.72
2023-01-04T20:30:42.318Z,102912.44
2023-01-04T20:33:09.581Z,102913.53
2023-01-04T20:35:39.592Z,102920.47
2023-01-04T20:38:06.201Z,102916.06
2023-01-04T20:40:32.822Z,102917.88
2023-01-04T20:43:17.852Z,102916.44
2023-01-04T20:45:45.877Z,102925.22
2023-01-04T20:48:12.659Z,102918.19
2023-01-04T20:50:39.667Z,102913.59
2023-01-04T20:53:06.209Z,102915.38
2023-01-04T20:55:32.855Z,102914.81
2023-01-04T20:57:59.528Z,102913.41
2023-01-04T21:00:26.143Z,102912.44
2023-01-04T21:02:52.857Z,102914.19
2023-01-04T21:05:19.598Z,102914.19
2023-01-04T21:07:46.184Z,102920.09
2023-01-04T21:10:12.783Z,102918.00
2023-01-04T21:12:39.371Z,102921.84
2023-01-04T21:15:06.723Z,102925.50
2023-01-04T21:17:33.317Z,102922.75
2023-01-04T21:20:00.013Z,102919.44
2023-01-04T21:22:26.964Z,102922.50
2023-01-04T21:24:53.585Z,102923.25
2023-01-04T21:27:20.184Z,102923.41
2023-01-04T21:29:46.838Z,102925.94
2023-01-04T21:32:13.407Z,102925.41
2023-01-04T21:34:39.998Z,102932.22
2023-01-04T21:37:06.588Z,102927.75
2023-01-04T21:39:33.279Z,102928.31
2023-01-04T21:41:59.851Z,102916.44
2023-01-04T21:44:26.572Z,102919.09
2023-01-04T21:46:53.276Z,102913.50
2023-01-04T21:49:20.153Z,102916.25
2023-01-04T21:51:46.729Z,102909.94
2023-01-04T21:54:13.674Z,102906.25
2023-01-04T21:56:40.270Z,102909.66
2023-01-04T21:59:06.912Z,102907.41
2023-01-04T22:01:35.347Z,102907.97
2023-01-04T22:04:03.025Z,102910.28
2023-01-04T22:06:30.041Z,102907.13
2023-01-04T22:08:58.606Z,102899.97
2023-01-04T22:11:25.125Z,102905.31
2023-01-04T22:13:51.761Z,102908.56
2023-01-04T22:16:19.605Z,102904.81
2023-01-04T22:18:48.126Z,102908.63
2023-01-04T22:21:15.413Z,102910.28
2023-01-04T22:23:42.083Z,102910.06
2023-01-04T22:26:08.828Z,102907.53
2023-01-04T22:28:37.271Z,102912.50
2023-01-04T22:31:05.951Z,102907.59
2023-01-04T22:33:33.461Z,102904.91
2023-01-04T22:36:03.167Z,102904.53
2023-01-04T22:38:29.784Z,102909.03
2023-01-04T22:40:56.358Z,102911.47
2023-01-04T22:43:22.993Z,102908.72
2023-01-04T22:45:49.558Z,102911.72
2023-01-04T22:48:16.208Z,102908.94
2023-01-04T22:50:42.797Z,102912.31
2023-01-04T22:53:09.419Z,102912.94
2023-01-04T22:56:17.081Z,102914.28
2023-01-04T22:58:26.176Z,102916.59
2023-01-04T23:00:52.747Z,102906.81
2023-01-04T23:03:19.527Z,102910.41
2023-01-04T23:05:46.384Z,102912.50
2023-01-04T23:08:13.026Z,102907.75
2023-01-04T23:10:39.618Z,102904.88
2023-01-04T23:13:06.257Z,102904.88
2023-01-04T23:15:32.817Z,102898.84
2023-01-04T23:17:59.447Z,102899.31
2023-01-04T23:20:26.020Z,102896.19
2023-01-04T23:22:52.670Z,102890.88
2023-01-04T23:25:19.283Z,102892.78
2023-01-04T23:27:46.111Z,102891.72
2023-01-04T23:30:13.157Z,102888.09
2023-01-04T23:32:39.781Z,102884.81
2023-01-04T23:35:07.460Z,102886.41
2023-01-04T23:37:34.119Z,102885.53
2023-01-04T23:40:00.816Z,102884.94
2023-01-04T23:42:27.514Z,102887.97
2023-01-04T23:44:54.058Z,102886.28
2023-01-04T23:47:20.632Z,102896.03
2023-01-04T23:49:47.362Z,102888.56
2023-01-04T23:52:14.013Z,102886.25
2023-01-04T23:54:40.767Z,102875.50
2023-01-04T23:57:07.348Z,102883.50
2023-01-04T23:59:33.981Z,102879.25
